ADDS TAF Data INFO
IDs: Format: Raw Decoded Include METARs

Data at: 1900 UTC 20 Jan 2018

Region: TOP
KATL 201724Z 2018/2124 29006KT P6SM FEW040
  TEMPO 2018/2019 BKN040
  FM210000 27003KT P6SM SCT250
  FM211200 VRB03KT 6SM BR SCT250
  FM211600 16005KT P6SM FEW050 SCT250


KBOS 201720Z 2018/2124 25018G30KT P6SM BKN150
  FM202300 26010KT P6SM SCT150
  FM211400 28004KT P6SM SCT130


KBWI 201720Z 2018/2124 25008KT P6SM SCT250
  FM202200 24004KT P6SM FEW250
  FM211200 00000KT P6SM BKN060


KCLE 201731Z 2018/2124 24012G20KT P6SM BKN250
  FM210000 22010KT P6SM OVC025
  FM210500 20008KT P6SM OVC015
  FM211000 20006KT 5SM -DZ BR OVC008
  FM211400 20004KT 2SM -DZ BR OVC004


KCLT 201720Z 2018/2124 24003KT P6SM FEW250
  FM210100 VRB02KT P6SM FEW250
  FM211100 00000KT 5SM BR FEW250
  FM211500 25003KT P6SM SCT250


KCVG 201727Z 2018/2124 23011G17KT P6SM BKN120
  FM202100 22008KT P6SM OVC025
  FM210000 21007KT P6SM OVC012
  FM210200 20006KT 5SM BR VCSH OVC008
  FM211200 19007KT 5SM BR OVC009
  FM211400 19008KT P6SM OVC012
  FM211900 19010KT P6SM OVC018


KDCA 201720Z 2018/2124 20009KT P6SM FEW250
  FM210500 VRB03KT P6SM FEW250
  FM211000 00000KT P6SM BKN050


KDEN 201739Z 2018/2124 04011KT P6SM FEW080 SCT120 BKN200
  FM210100 05013KT P6SM SCT015 BKN030 OVC050
  TEMPO 2103/2106 2SM -FZDZ BR BKN008 OVC016
  FM210600 04012KT 1SM -FZDZ BR SCT004 OVC008
  TEMPO 2109/2112 1/2SM -SN FZFG OVC004
  FM211200 03014G22KT 3/4SM -SN BR OVC008
  FM211900 36022G32KT 1 1/2SM -SN BLSN BR OVC008


KDFW 201730Z 2018/2124 18020KT P6SM SCT017
  FM210300 17015KT P6SM OVC012
  FM210800 17016KT 5SM BR OVC008
  FM211500 19017KT P6SM OVC017
  FM211700 21018KT P6SM VCSH BKN028
  FM211900 23021KT P6SM FEW025


KDTW 201728Z 2018/2124 23013KT P6SM BKN200
  FM210100 20007KT 5SM BR OVC025
  FM210800 18005KT 2SM BR OVC006
  FM211600 14005KT 1SM -SHRA BR OVC004


KEWR 201720Z 2018/2124 26015G22KT P6SM BKN250
  FM202200 26010KT P6SM BKN250
  FM210300 27005KT P6SM BKN250
  FM211200 30006KT P6SM SCT250
  FM212100 25005KT P6SM BKN040


KFLL 201720Z 2018/2124 09008KT P6SM BKN035 BKN050
  FM210000 05005KT P6SM SCT030 SCT060 BKN250
  FM211300 09011KT P6SM SCT035 BKN060
  FM211700 09015KT P6SM SCT035 BKN060


KIAD 201720Z 2018/2124 24008KT P6SM SCT250
  FM210000 VRB03KT P6SM SCT250
  FM210900 VRB03KT P6SM BKN050


KIAH 201720Z 2018/2124 17010KT 6SM BR SCT006 BKN025
  FM210000 16010KT 6SM BR OVC007
  FM210300 16008KT 2SM BR VCSH OVC004
  FM211600 16009KT 5SM BR VCSH OVC007
  FM211800 17012KT P6SM OVC015


KJFK 201720Z 2018/2124 25015G22KT P6SM BKN250
  FM202200 26011KT P6SM BKN250
  FM210300 28007KT P6SM BKN250
  FM211200 30007KT P6SM SCT250
  FM212100 25005KT P6SM BKN040


KLAS 201738Z 2018/2124 31011KT P6SM SCT060 BKN080
  TEMPO 2018/2019 BKN050
  FM202000 33015G25KT P6SM VCSH BKN050 BKN070 BKN100
  FM210000 33013G22KT P6SM SCT060 SCT100
  FM210300 32012G20KT P6SM FEW100 SCT250
  FM211200 32008KT P6SM FEW250
  FM211700 03007KT P6SM SCT250


KLAX 201731Z 2018/2124 35015G25KT P6SM SCT120 BKN200
  FM202000 28022G32KT P6SM SKC
  FM210300 29015KT P6SM SKC
  FM210500 31008KT P6SM SKC
  FM210700 35006KT P6SM SKC
  FM211100 03005KT P6SM SKC
  FM211400 VRB03KT P6SM SKC
  FM212000 26011KT P6SM SKC


KLGA 201720Z 2018/2124 26015G22KT P6SM BKN250
  FM202200 27010KT P6SM BKN250
  FM210300 29007KT P6SM BKN250
  FM211200 32006KT P6SM SCT250
  FM212100 26005KT P6SM BKN040


KMCO 201720Z 2018/2124 07004KT P6SM SCT120 BKN250
  FM210000 07005KT P6SM BKN070
  FM211000 03003KT P6SM BKN100
  FM211600 08008KT P6SM SCT030


KMDW 201741Z 2018/2124 23008KT P6SM BKN250
  FM210000 21006KT P6SM OVC012
  FM210600 20003KT 3SM BR OVC007
  FM210900 16003KT 2SM -DZ BR OVC004
  TEMPO 2114/2118 3/4SM -DZ BR OVC003
  FM211900 11004KT 1 1/2SM -DZ BR OVC003


KMEM 201725Z 2018/2124 19010KT P6SM OVC025
  FM210000 17007KT P6SM BKN025
  FM210900 18011KT P6SM OVC015
  FM212100 18011KT P6SM BKN030


KMIA 201720Z 2018/2124 10009KT P6SM SCT030 BKN050
  FM210000 VRB03KT P6SM FEW025 SCT060 BKN250
  FM211400 09011KT P6SM SCT035 BKN060
  FM211700 09015KT P6SM SCT035 BKN060


KMSP 201742Z 2018/2124 VRB03KT P6SM BKN100
  FM210600 00000KT 6SM BR BKN080
  FM211500 02006KT P6SM BKN080


KORD 201741Z 2018/2124 23008KT P6SM BKN250
  FM210100 21006KT P6SM OVC012
  FM210600 VRB03KT 3SM -DZ BR OVC008
  FM211200 VRB03KT 1SM -DZ BR OVC005
  TEMPO 2114/2118 3/4SM -DZ BR OVC003
  FM211900 11004KT 1 1/2SM -DZ BR OVC003


KPDX 201741Z 2018/2118 17008KT P6SM -SHRA FEW015 SCT040 OVC050
  FM210800 14018G30KT P6SM -RA OVC050


KPHL 201727Z 2018/2124 25012G20KT P6SM SCT250
  FM202100 27008KT P6SM SCT250
  FM210800 29003KT P6SM BKN200
  FM211800 24005KT P6SM BKN070


KPHX 201739Z 2018/2124 22010G17KT P6SM VCSH FEW040 BKN070 OVC120
  TEMPO 2018/2020 -SHRA BKN060
  FM202100 24012G22KT P6SM FEW050 BKN100
  FM210100 21007KT P6SM VCSH SCT050 BKN070
  FM210700 VRB03KT P6SM SKC


KPIT 201736Z 2018/2124 22012G22KT P6SM SCT035 BKN250
  FM210200 24008KT P6SM BKN025
  FM210500 23006KT P6SM OVC015
  FM211000 20006KT 4SM BR VCSH BKN010
  FM211500 21005KT P6SM VCSH OVC020


KSAN 201720Z 2018/2124 29015G25KT P6SM SCT030 BKN045
  FM210200 30010KT P6SM FEW025
  FM210500 27005KT P6SM FEW250
  FM212100 30009KT P6SM SCT250


KSEA 201740Z 2018/2124 17010KT P6SM VCSH SCT020 OVC030
  TEMPO 2018/2021 6SM -SHRA BR SCT015 OVC025
  FM202300 16009KT P6SM VCSH SCT030 BKN045
  FM211400 15015G25KT 6SM -RA BKN030 OVC050 WS020/19050KT
  FM211900 18016G26KT P6SM VCSH SCT020 BKN030 BKN050


KSFO 201724Z 2018/2124 30010KT P6SM FEW200
  FM202200 28013KT P6SM FEW020 SCT200
  FM210600 28007KT P6SM FEW018 BKN180
  FM211100 24003KT P6SM SCT020 BKN025 BKN120
  FM211600 19003KT P6SM SCT024 BKN030 OVC100
  FM212100 21010KT P6SM FEW025 SCT030 OVC100


KSLC 201721Z 2018/2124 32010KT 2SM -SHSN BKN020 OVC040
  FM201900 34010KT P6SM VCSH SCT020 BKN040
  FM210200 35010KT P6SM SCT040 BKN060


KSTL 201813Z 2018/2124 19010KT P6SM OVC022
  FM210600 17006KT P6SM OVC015
  FM211900 17008KT P6SM BKN025


KTPA 201737Z 2018/2124 VRB04KT P6SM FEW030 BKN200
  FM210200 07003KT P6SM BKN200
  FM211500 09007KT P6SM FEW030 SCT200